Time;durP1;ratioP1;P1;durP2;ratioP2;P2;SDS_P1;SDS_P2;PMS_P1;PMS_P2;Temp;Humidity;BMP_temperature;BMP_pressure;BME280_temperature;BME280_humidity;BME280_pressure;Samples;Min_cycle;Max_cycle;Signal;HPM_P1;HPM_P2
2023/07/26 00:01:50;;;;;;;2.28;1.02;;;;;;;;;;5117727;28;20036;-80
2023/07/26 00:04:16;;;;;;;2.25;1.40;;;;;;;;;;5117878;28;20069;-80
2023/07/26 00:06:42;;;;;;;2.65;1.27;;;;;;;;;;5118349;28;20079;-80
2023/07/26 00:09:08;;;;;;;1.40;1.30;;;;;;;;;;5116561;28;20086;-79
2023/07/26 00:11:35;;;;;;;2.45;1.20;;;;;;;;;;5117722;28;20039;-80
2023/07/26 00:14:03;;;;;;;2.17;1.23;;;;;;;;;;5116473;28;20044;-80
2023/07/26 00:16:30;;;;;;;2.05;1.45;;;;;;;;;;5117546;28;20126;-80
2023/07/26 00:18:56;;;;;;;2.10;1.70;;;;;;;;;;5116249;28;20481;-80
2023/07/26 00:21:22;;;;;;;2.78;1.83;;;;;;;;;;5116889;28;20477;-80
2023/07/26 00:23:49;;;;;;;1.95;1.67;;;;;;;;;;5117554;28;20040;-80
2023/07/26 00:26:15;;;;;;;1.75;1.65;;;;;;;;;;5117478;28;20051;-80
2023/07/26 00:28:41;;;;;;;4.00;2.10;;;;;;;;;;5099432;28;20374;-79
2023/07/26 00:31:07;;;;;;;1.77;1.52;;;;;;;;;;5117233;28;20040;-80
2023/07/26 00:33:33;;;;;;;4.60;1.60;;;;;;;;;;5116900;28;20489;-80
2023/07/26 00:35:59;;;;;;;1.73;1.63;;;;;;;;;;5117221;28;20482;-80
2023/07/26 00:38:25;;;;;;;3.28;1.90;;;;;;;;;;5116155;28;20090;-80
2023/07/26 00:40:52;;;;;;;4.70;1.52;;;;;;;;;;5116215;28;20047;-80
2023/07/26 00:43:18;;;;;;;1.20;1.08;;;;;;;;;;5099164;28;20040;-80
2023/07/26 00:45:44;;;;;;;3.97;1.90;;;;;;;;;;5115647;28;20508;-80
2023/07/26 00:48:11;;;;;;;2.10;1.35;;;;;;;;;;5115650;28;20047;-80
2023/07/26 00:50:38;;;;;;;2.42;1.58;;;;;;;;;;5116737;28;20044;-80
2023/07/26 00:53:04;;;;;;;1.83;1.73;;;;;;;;;;5115854;28;20039;-80
2023/07/26 00:55:31;;;;;;;1.80;1.50;;;;;;;;;;5115896;28;20404;-80
2023/07/26 00:57:57;;;;;;;2.70;1.55;;;;;;;;;;5115383;28;20493;-80
2023/07/26 01:00:23;;;;;;;4.60;1.48;;;;;;;;;;5116638;28;20076;-80
2023/07/26 01:02:49;;;;;;;2.47;1.20;;;;;;;;;;5098877;28;20047;-80
2023/07/26 01:05:16;;;;;;;2.22;1.20;;;;;;;;;;5115934;28;20512;-80
2023/07/26 01:07:54;;;;;;;1.65;1.55;;;;;;;;;;5115685;28;20127;-80
2023/07/26 01:10:42;;;;;;;3.13;1.23;;;;;;;;;;5115581;28;20090;-81
2023/07/26 01:13:15;;;;;;;3.13;1.35;;;;;;;;;;5098238;28;20100;-81
2023/07/26 01:15:42;;;;;;;1.38;1.02;;;;;;;;;;5115528;28;20055;-80
2023/07/26 01:18:12;;;;;;;1.92;1.45;;;;;;;;;;5098955;28;20047;-80
2023/07/26 01:20:38;;;;;;;2.55;1.38;;;;;;;;;;5098473;28;20051;-80
2023/07/26 01:23:06;;;;;;;1.50;1.38;;;;;;;;;;5098581;28;20062;-80
2023/07/26 01:25:32;;;;;;;2.33;1.40;;;;;;;;;;5115734;28;20377;-80
2023/07/26 01:27:58;;;;;;;1.38;1.20;;;;;;;;;;5114828;28;20056;-80
2023/07/26 01:30:24;;;;;;;5.20;1.42;;;;;;;;;;5116180;28;20093;-80
2023/07/26 01:32:52;;;;;;;2.45;1.70;;;;;;;;;;5115154;28;20043;-81
2023/07/26 01:35:20;;;;;;;1.85;1.17;;;;;;;;;;5115976;28;20067;-80
2023/07/26 01:37:46;;;;;;;2.38;1.40;;;;;;;;;;5115076;28;20096;-80
2023/07/26 01:40:12;;;;;;;2.22;1.75;;;;;;;;;;5115038;28;20047;-81
2023/07/26 01:42:38;;;;;;;3.72;1.58;;;;;;;;;;5115971;28;20079;-80
2023/07/26 01:45:04;;;;;;;2.40;1.77;;;;;;;;;;5115916;28;20044;-80
2023/07/26 01:47:31;;;;;;;2.45;1.50;;;;;;;;;;5115550;28;20047;-80
2023/07/26 01:49:57;;;;;;;2.38;1.58;;;;;;;;;;5114812;28;20039;-80
2023/07/26 01:52:26;;;;;;;2.92;1.42;;;;;;;;;;5115747;28;20044;-80
2023/07/26 01:54:53;;;;;;;3.47;1.33;;;;;;;;;;5114361;28;20043;-81
2023/07/26 01:57:22;;;;;;;1.70;1.40;;;;;;;;;;5116206;28;20048;-80
2023/07/26 01:59:48;;;;;;;2.22;1.70;;;;;;;;;;5114030;28;20126;-81
2023/07/26 02:02:14;;;;;;;3.22;1.95;;;;;;;;;;5114671;28;20051;-81
2023/07/26 02:04:40;;;;;;;1.58;1.40;;;;;;;;;;5114916;28;20385;-81
2023/07/26 02:07:06;;;;;;;2.97;1.58;;;;;;;;;;5114512;28;20051;-81
2023/07/26 02:09:33;;;;;;;1.52;1.30;;;;;;;;;;5097564;28;20047;-80
2023/07/26 02:11:59;;;;;;;1.92;1.50;;;;;;;;;;5115215;28;20047;-80
2023/07/26 02:14:25;;;;;;;1.75;1.20;;;;;;;;;;5114707;28;20045;-80
2023/07/26 02:16:51;;;;;;;3.60;1.23;;;;;;;;;;5098327;28;20085;-80
2023/07/26 02:19:17;;;;;;;1.50;1.38;;;;;;;;;;5115677;28;20047;-80
2023/07/26 02:21:43;;;;;;;1.80;1.23;;;;;;;;;;5114199;28;20043;-80
2023/07/26 02:24:09;;;;;;;1.40;1.17;;;;;;;;;;5114218;28;20148;-80
2023/07/26 02:26:35;;;;;;;1.83;1.27;;;;;;;;;;5097214;28;20060;-80
2023/07/26 02:29:01;;;;;;;1.63;1.23;;;;;;;;;;5113655;28;20048;-80
2023/07/26 02:31:27;;;;;;;3.42;1.25;;;;;;;;;;5114333;28;20055;-80
2023/07/26 02:33:53;;;;;;;2.78;1.23;;;;;;;;;;5113772;28;20497;-80
2023/07/26 02:36:20;;;;;;;3.33;1.00;;;;;;;;;;5097337;28;20044;-80
2023/07/26 02:38:46;;;;;;;1.42;1.17;;;;;;;;;;5113428;28;20554;-80
2023/07/26 02:41:12;;;;;;;1.83;1.17;;;;;;;;;;5114652;28;20047;-80
2023/07/26 02:43:38;;;;;;;1.88;1.23;;;;;;;;;;5114607;28;20093;-80
2023/07/26 02:46:04;;;;;;;1.13;0.93;;;;;;;;;;5114801;28;20090;-80
2023/07/26 02:48:30;;;;;;;3.75;1.02;;;;;;;;;;5097097;28;20048;-80
2023/07/26 02:50:56;;;;;;;1.65;1.08;;;;;;;;;;5113444;28;20157;-80
2023/07/26 02:53:22;;;;;;;1.20;1.02;;;;;;;;;;5096771;28;20404;-80
2023/07/26 02:55:48;;;;;;;1.77;1.30;;;;;;;;;;5114514;28;20051;-80
2023/07/26 02:58:14;;;;;;;2.63;1.08;;;;;;;;;;5114357;28;20043;-80
2023/07/26 03:00:40;;;;;;;4.38;1.10;;;;;;;;;;5113334;28;20083;-80
2023/07/26 03:03:06;;;;;;;2.70;1.23;;;;;;;;;;5096760;28;20479;-80
2023/07/26 03:05:33;;;;;;;1.48;1.15;;;;;;;;;;5113296;28;20043;-80
2023/07/26 03:07:59;;;;;;;1.13;0.80;;;;;;;;;;5113661;28;20477;-80
2023/07/26 03:10:25;;;;;;;2.70;1.25;;;;;;;;;;5114380;28;20097;-80
2023/07/26 03:12:51;;;;;;;1.15;0.90;;;;;;;;;;5096424;28;20061;-80
2023/07/26 03:15:17;;;;;;;1.92;1.30;;;;;;;;;;5113327;28;20127;-80
2023/07/26 03:17:43;;;;;;;2.22;1.02;;;;;;;;;;5113671;28;20043;-80
2023/07/26 03:20:10;;;;;;;2.65;0.90;;;;;;;;;;5114984;28;20040;-80
2023/07/26 03:22:36;;;;;;;2.22;1.45;;;;;;;;;;5114171;28;20048;-80
2023/07/26 03:25:02;;;;;;;1.85;1.00;;;;;;;;;;5113180;28;20558;-80
2023/07/26 03:27:28;;;;;;;2.83;1.75;;;;;;;;;;5095893;28;20056;-80
2023/07/26 03:29:54;;;;;;;1.73;1.40;;;;;;;;;;5114951;28;20077;-80
2023/07/26 03:32:20;;;;;;;3.15;1.65;;;;;;;;;;5096295;28;20055;-81
2023/07/26 03:34:47;;;;;;;1.35;1.25;;;;;;;;;;5113950;28;20079;-80
2023/07/26 03:37:13;;;;;;;1.98;1.40;;;;;;;;;;5096046;28;20043;-80
2023/07/26 03:39:39;;;;;;;1.90;1.30;;;;;;;;;;5113982;28;20130;-81
2023/07/26 03:42:05;;;;;;;2.05;1.38;;;;;;;;;;5113025;28;20043;-80
2023/07/26 03:44:31;;;;;;;1.45;0.80;;;;;;;;;;5113625;28;20122;-80
2023/07/26 03:46:57;;;;;;;1.88;0.93;;;;;;;;;;5112674;28;20054;-81
2023/07/26 03:49:23;;;;;;;1.45;0.82;;;;;;;;;;5096043;28;20048;-80
2023/07/26 03:51:50;;;;;;;1.77;1.20;;;;;;;;;;5095855;28;20047;-81
2023/07/26 03:54:16;;;;;;;1.77;1.40;;;;;;;;;;5113823;28;20051;-80
2023/07/26 03:56:42;;;;;;;2.53;1.40;;;;;;;;;;5113700;28;20047;-80
2023/07/26 03:59:08;;;;;;;1.75;1.33;;;;;;;;;;5112716;28;20370;-80
2023/07/26 04:01:34;;;;;;;4.30;1.50;;;;;;;;;;5113074;28;20047;-80
2023/07/26 04:04:00;;;;;;;2.10;1.23;;;;;;;;;;5113802;28;20133;-80
2023/07/26 04:06:26;;;;;;;3.17;1.15;;;;;;;;;;5112592;28;20048;-81
2023/07/26 04:08:52;;;;;;;1.83;1.13;;;;;;;;;;5079176;28;20051;-80
2023/07/26 04:11:18;;;;;;;9.15;0.90;;;;;;;;;;5112471;28;20144;-80
2023/07/26 04:13:44;;;;;;;0.80;0.63;;;;;;;;;;5113657;28;20047;-80
2023/07/26 04:16:17;;;;;;;0.93;0.50;;;;;;;;;;5096062;28;20044;-81
2023/07/26 04:18:44;;;;;;;0.88;0.50;;;;;;;;;;5113238;28;20376;-80
2023/07/26 04:21:13;;;;;;;0.93;0.60;;;;;;;;;;5113517;28;20050;-80
2023/07/26 04:23:39;;;;;;;1.90;0.70;;;;;;;;;;5115250;28;20035;-80
2023/07/26 04:26:05;;;;;;;1.67;0.70;;;;;;;;;;5116424;28;20051;-80
2023/07/26 04:28:31;;;;;;;2.47;0.90;;;;;;;;;;5115963;28;20062;-80
2023/07/26 04:30:57;;;;;;;1.58;0.90;;;;;;;;;;5116165;28;20133;-80
2023/07/26 04:33:23;;;;;;;1.25;1.15;;;;;;;;;;5116514;28;20122;-81
2023/07/26 04:35:51;;;;;;;2.08;1.05;;;;;;;;;;5116253;28;20051;-80
2023/07/26 04:38:18;;;;;;;4.22;0.95;;;;;;;;;;5099577;28;20566;-80
2023/07/26 04:40:47;;;;;;;3.15;1.15;;;;;;;;;;5099558;28;20048;-80
2023/07/26 04:43:16;;;;;;;0.85;0.63;;;;;;;;;;5099528;28;20044;-80
2023/07/26 04:45:42;;;;;;;1.90;0.60;;;;;;;;;;5115828;28;20048;-80
2023/07/26 04:48:08;;;;;;;3.92;0.77;;;;;;;;;;5116062;28;20047;-80
2023/07/26 04:50:34;;;;;;;2.20;0.70;;;;;;;;;;5115761;28;20378;-80
2023/07/26 04:53:00;;;;;;;0.95;0.40;;;;;;;;;;5116263;28;20051;-81
2023/07/26 04:55:26;;;;;;;2.00;0.77;;;;;;;;;;5116863;28;20047;-80
2023/07/26 04:57:52;;;;;;;2.55;0.93;;;;;;;;;;5115668;28;20396;-80
2023/07/26 05:00:18;;;;;;;1.10;0.82;;;;;;;;;;5116711;28;20052;-81
2023/07/26 05:02:44;;;;;;;1.45;1.05;;;;;;;;;;5116768;28;20087;-80
2023/07/26 05:05:11;;;;;;;1.58;1.02;;;;;;;;;;5115592;28;20126;-80
2023/07/26 05:07:37;;;;;;;1.83;0.95;;;;;;;;;;5115550;28;20052;-80
2023/07/26 05:10:03;;;;;;;2.45;1.27;;;;;;;;;;5115700;28;20044;-80
2023/07/26 05:12:29;;;;;;;1.70;0.80;;;;;;;;;;5117151;28;20180;-80
2023/07/26 05:14:55;;;;;;;2.30;0.70;;;;;;;;;;5115546;28;20039;-80
2023/07/26 05:17:21;;;;;;;1.33;1.00;;;;;;;;;;5116515;28;20077;-81
2023/07/26 05:19:47;;;;;;;1.00;0.57;;;;;;;;;;5115464;28;20048;-80
2023/07/26 05:22:13;;;;;;;1.63;1.00;;;;;;;;;;5115839;28;20039;-80
2023/07/26 05:24:39;;;;;;;1.10;0.80;;;;;;;;;;5115407;28;20044;-80
2023/07/26 05:27:06;;;;;;;4.15;1.30;;;;;;;;;;5115364;28;20484;-80
2023/07/26 05:29:32;;;;;;;2.80;1.05;;;;;;;;;;5115136;28;20047;-80
2023/07/26 05:31:58;;;;;;;1.20;0.85;;;;;;;;;;5099083;28;20369;-80
2023/07/26 05:34:24;;;;;;;3.30;0.80;;;;;;;;;;5114680;28;20079;-80
2023/07/26 05:36:51;;;;;;;3.28;1.50;;;;;;;;;;5098292;28;20052;-80
2023/07/26 05:39:17;;;;;;;2.42;1.80;;;;;;;;;;5098311;28;20051;-80
2023/07/26 05:41:43;;;;;;;2.15;1.25;;;;;;;;;;5116020;28;20047;-80
2023/07/26 05:44:09;;;;;;;1.90;1.80;;;;;;;;;;5114675;28;20047;-80
2023/07/26 05:46:35;;;;;;;2.40;1.70;;;;;;;;;;5098042;28;20553;-80
2023/07/26 05:49:01;;;;;;;2.70;1.23;;;;;;;;;;5116615;28;20040;-81
2023/07/26 05:51:27;;;;;;;2.08;1.58;;;;;;;;;;5114604;28;20043;-81
2023/07/26 05:53:53;;;;;;;2.08;1.65;;;;;;;;;;5115364;28;20531;-80
2023/07/26 05:56:19;;;;;;;1.63;1.50;;;;;;;;;;5098054;28;20147;-81
2023/07/26 05:58:45;;;;;;;1.88;1.45;;;;;;;;;;5114481;28;20047;-80
2023/07/26 06:01:12;;;;;;;1.70;1.60;;;;;;;;;;5115668;28;20096;-81
2023/07/26 06:03:38;;;;;;;2.13;1.48;;;;;;;;;;5114614;28;20052;-81
2023/07/26 06:06:05;;;;;;;1.98;1.52;;;;;;;;;;5114489;28;20126;-81
2023/07/26 06:08:32;;;;;;;3.28;1.90;;;;;;;;;;5114241;28;20077;-80
2023/07/26 06:10:58;;;;;;;2.25;1.73;;;;;;;;;;5097661;28;20050;-81
2023/07/26 06:13:24;;;;;;;2.60;2.15;;;;;;;;;;5097375;28;20112;-80
2023/07/26 06:15:50;;;;;;;2.00;1.90;;;;;;;;;;5115880;28;20044;-81
2023/07/26 06:18:16;;;;;;;3.60;2.30;;;;;;;;;;5114607;28;20054;-80
2023/07/26 06:20:42;;;;;;;3.15;2.28;;;;;;;;;;5114163;28;20047;-81
2023/07/26 06:23:08;;;;;;;2.42;2.22;;;;;;;;;;5115049;28;20044;-80
2023/07/26 06:25:34;;;;;;;2.53;2.10;;;;;;;;;;5096599;28;20047;-80
2023/07/26 06:28:00;;;;;;;2.40;2.30;;;;;;;;;;5113851;28;20060;-80
2023/07/26 06:30:27;;;;;;;2.20;2.08;;;;;;;;;;5114966;28;20048;-80
2023/07/26 06:32:53;;;;;;;2.35;2.15;;;;;;;;;;5097930;28;20054;-80
2023/07/26 06:35:19;;;;;;;2.55;2.35;;;;;;;;;;5097088;28;20058;-81
2023/07/26 06:37:45;;;;;;;2.65;2.45;;;;;;;;;;5113926;28;20093;-80
2023/07/26 06:40:11;;;;;;;2.22;2.00;;;;;;;;;;5114783;28;20052;-81
2023/07/26 06:42:38;;;;;;;2.15;1.88;;;;;;;;;;5096901;28;20043;-81
2023/07/26 06:45:04;;;;;;;2.83;2.28;;;;;;;;;;5113805;28;20152;-81
2023/07/26 06:47:30;;;;;;;4.45;2.70;;;;;;;;;;5079434;28;20082;-81
2023/07/26 06:49:56;;;;;;;3.10;2.80;;;;;;;;;;5096937;28;20180;-81
2023/07/26 06:52:22;;;;;;;3.00;2.78;;;;;;;;;;5114538;28;20432;-80
2023/07/26 06:54:48;;;;;;;2.58;2.38;;;;;;;;;;5096495;28;20044;-81
2023/07/26 06:57:14;;;;;;;4.93;2.70;;;;;;;;;;5114842;28;20043;-81
2023/07/26 06:59:40;;;;;;;4.65;2.60;;;;;;;;;;5114512;28;20473;-81
2023/07/26 07:02:07;;;;;;;3.80;3.35;;;;;;;;;;5114731;28;20465;-81
2023/07/26 07:04:33;;;;;;;3.17;2.88;;;;;;;;;;5096562;28;20480;-81
2023/07/26 07:06:59;;;;;;;3.53;2.60;;;;;;;;;;5113191;28;20043;-81
2023/07/26 07:09:25;;;;;;;3.88;2.90;;;;;;;;;;5096403;28;20410;-81
2023/07/26 07:11:51;;;;;;;3.40;3.10;;;;;;;;;;5113435;28;20127;-81
2023/07/26 07:14:18;;;;;;;2.33;2.10;;;;;;;;;;5113058;28;20044;-81
2023/07/26 07:16:44;;;;;;;2.75;2.55;;;;;;;;;;5113128;28;20065;-81
2023/07/26 07:19:10;;;;;;;2.65;2.20;;;;;;;;;;5112872;28;20051;-81
2023/07/26 07:21:36;;;;;;;2.10;1.77;;;;;;;;;;5113232;28;20488;-81
2023/07/26 07:24:04;;;;;;;1.65;1.45;;;;;;;;;;5096543;28;20040;-80
2023/07/26 07:26:30;;;;;;;2.60;1.77;;;;;;;;;;5113205;28;20055;-81
2023/07/26 07:28:56;;;;;;;2.33;1.55;;;;;;;;;;5114161;28;20060;-80
2023/07/26 07:31:22;;;;;;;2.95;2.33;;;;;;;;;;5113521;28;20048;-80
2023/07/26 07:33:48;;;;;;;2.47;2.28;;;;;;;;;;5114006;28;20076;-80
2023/07/26 07:36:18;;;;;;;3.22;2.97;;;;;;;;;;5096213;28;20043;-80
2023/07/26 07:38:47;;;;;;;2.17;1.83;;;;;;;;;;5113723;28;20054;-81
2023/07/26 07:41:14;;;;;;;2.63;2.40;;;;;;;;;;5112959;28;20052;-80
2023/07/26 07:43:40;;;;;;;3.72;3.20;;;;;;;;;;5112815;28;20044;-81
2023/07/26 07:46:06;;;;;;;3.67;3.33;;;;;;;;;;5114043;28;20048;-80
2023/07/26 07:48:33;;;;;;;2.85;2.65;;;;;;;;;;5096265;28;20394;-80
2023/07/26 07:51:00;;;;;;;4.15;2.38;;;;;;;;;;5114471;28;20135;-81
2023/07/26 07:53:26;;;;;;;2.67;2.47;;;;;;;;;;5113611;28;20058;-80
2023/07/26 07:55:52;;;;;;;5.40;3.33;;;;;;;;;;5113888;28;20039;-81
2023/07/26 07:58:19;;;;;;;4.95;3.67;;;;;;;;;;5114760;28;20047;-81
2023/07/26 08:00:45;;;;;;;3.90;2.13;;;;;;;;;;5099879;28;20055;-77
2023/07/26 08:03:11;;;;;;;1.35;0.60;;;;;;;;;;5116558;28;20485;-78
2023/07/26 08:05:38;;;;;;;2.95;2.05;;;;;;;;;;5116766;28;20036;-79
2023/07/26 08:08:06;;;;;;;2.78;0.60;;;;;;;;;;5116793;28;20469;-78
2023/07/26 08:10:32;;;;;;;1.60;0.90;;;;;;;;;;5118277;28;20158;-79
2023/07/26 08:12:58;;;;;;;2.33;1.00;;;;;;;;;;5118456;28;20047;-82
2023/07/26 08:15:24;;;;;;;2.42;0.88;;;;;;;;;;5119120;28;20079;-82
2023/07/26 08:17:50;;;;;;;1.40;0.98;;;;;;;;;;5116969;28;20081;-82
2023/07/26 08:20:16;;;;;;;2.97;1.00;;;;;;;;;;5118796;28;20051;-82
2023/07/26 08:22:42;;;;;;;1.20;0.57;;;;;;;;;;5118989;28;20055;-82
2023/07/26 08:25:08;;;;;;;1.20;0.65;;;;;;;;;;5118051;28;20048;-82
2023/07/26 08:27:35;;;;;;;1.90;0.82;;;;;;;;;;5100777;28;20059;-81
2023/07/26 08:30:01;;;;;;;0.90;0.70;;;;;;;;;;5117860;27;20044;-81
2023/07/26 08:32:27;;;;;;;0.90;0.50;;;;;;;;;;5117646;28;20398;-81
2023/07/26 08:34:53;;;;;;;2.15;0.57;;;;;;;;;;5082602;28;20043;-81
2023/07/26 08:37:20;;;;;;;1.27;0.57;;;;;;;;;;5117676;28;20389;-81
2023/07/26 08:39:46;;;;;;;0.80;0.50;;;;;;;;;;5099705;28;20048;-81
2023/07/26 08:42:12;;;;;;;0.80;0.40;;;;;;;;;;5116295;28;20040;-81
2023/07/26 08:44:38;;;;;;;1.17;0.20;;;;;;;;;;5117679;28;20156;-81
2023/07/26 08:47:05;;;;;;;1.20;0.30;;;;;;;;;;5115908;28;20544;-81
2023/07/26 08:49:32;;;;;;;1.05;0.50;;;;;;;;;;5117099;28;20508;-81
2023/07/26 08:51:58;;;;;;;0.88;0.38;;;;;;;;;;5116486;28;20055;-81
2023/07/26 08:54:24;;;;;;;0.57;0.20;;;;;;;;;;5098679;28;20537;-81
2023/07/26 08:56:51;;;;;;;1.35;0.20;;;;;;;;;;5117836;28;20047;-82
2023/07/26 08:59:17;;;;;;;0.90;0.22;;;;;;;;;;5099175;28;20452;-82
2023/07/26 09:01:43;;;;;;;0.50;0.20;;;;;;;;;;5099547;28;20048;-82
2023/07/26 09:04:10;;;;;;;0.45;0.30;;;;;;;;;;5099156;28;20077;-81
2023/07/26 09:06:44;;;;;;;0.93;0.40;;;;;;;;;;5116663;28;20043;-81
2023/07/26 09:09:11;;;;;;;0.73;0.50;;;;;;;;;;5117290;28;20043;-81
2023/07/26 09:11:48;;;;;;;0.68;0.60;;;;;;;;;;5099024;28;20081;-82
2023/07/26 09:14:14;;;;;;;1.00;0.50;;;;;;;;;;5116535;28;20440;-82
2023/07/26 09:16:40;;;;;;;1.17;0.60;;;;;;;;;;5082541;28;20079;-81
2023/07/26 09:19:06;;;;;;;1.17;0.95;;;;;;;;;;5115313;28;20085;-83
2023/07/26 09:21:36;;;;;;;1.25;0.73;;;;;;;;;;5117203;28;20051;-84
2023/07/26 09:24:06;;;;;;;1.50;1.00;;;;;;;;;;5098228;28;20075;-81
2023/07/26 09:26:38;;;;;;;2.00;0.95;;;;;;;;;;5115061;28;20050;-81
2023/07/26 09:29:09;;;;;;;1.33;1.10;;;;;;;;;;5114843;28;20497;-82
2023/07/26 09:31:38;;;;;;;2.22;1.27;;;;;;;;;;5115018;28;20047;-82
2023/07/26 09:34:08;;;;;;;1.80;1.70;;;;;;;;;;5114957;28;20046;-82
2023/07/26 09:36:44;;;;;;;1.70;1.60;;;;;;;;;;5115168;28;20039;-82
2023/07/26 09:39:11;;;;;;;2.22;2.03;;;;;;;;;;5116744;28;20044;-81
2023/07/26 09:41:38;;;;;;;1.30;1.20;;;;;;;;;;5098264;28;20044;-81
2023/07/26 09:44:07;;;;;;;1.40;1.00;;;;;;;;;;5097728;28;20047;-81
2023/07/26 09:47:00;;;;;;;3.00;1.15;;;;;;;;;;5114791;28;20044;-82
2023/07/26 09:49:27;;;;;;;2.58;1.42;;;;;;;;;;5111494;28;20457;-81
2023/07/26 09:51:54;;;;;;;1.77;1.33;;;;;;;;;;5114573;28;20051;-80
2023/07/26 09:54:21;;;;;;;1.85;1.08;;;;;;;;;;5114427;28;20039;-81
2023/07/26 09:56:48;;;;;;;1.95;1.52;;;;;;;;;;5114456;28;20047;-82
2023/07/26 09:59:15;;;;;;;5.47;1.00;;;;;;;;;;5114635;28;20069;-82
2023/07/26 10:01:42;;;;;;;1.83;1.42;;;;;;;;;;5115599;28;20051;-82
2023/07/26 10:04:20;;;;;;;2.47;2.00;;;;;;;;;;5115432;28;20058;-82
2023/07/26 10:06:49;;;;;;;1.92;1.65;;;;;;;;;;5097927;28;20489;-83
2023/07/26 10:09:16;;;;;;;1.20;1.10;;;;;;;;;;5115349;28;20126;-82
2023/07/26 10:11:43;;;;;;;1.75;1.65;;;;;;;;;;5115561;28;20091;-82
2023/07/26 10:14:12;;;;;;;1.58;1.48;;;;;;;;;;5114373;28;20039;-83
2023/07/26 10:16:39;;;;;;;2.13;1.92;;;;;;;;;;5097275;28;20130;-83
2023/07/26 10:19:07;;;;;;;1.98;1.80;;;;;;;;;;5114820;28;20056;-82
2023/07/26 10:21:35;;;;;;;2.30;1.48;;;;;;;;;;5114586;28;20137;-82
2023/07/26 10:24:02;;;;;;;1.85;1.60;;;;;;;;;;5115679;28;20547;-81
2023/07/26 10:26:30;;;;;;;1.73;1.08;;;;;;;;;;5114004;28;20130;-82
2023/07/26 10:28:59;;;;;;;3.38;1.60;;;;;;;;;;5114893;28;20051;-82
2023/07/26 10:31:29;;;;;;;1.88;1.50;;;;;;;;;;5097997;28;20109;-82
2023/07/26 10:33:56;;;;;;;2.85;1.63;;;;;;;;;;5113893;28;20074;-82
2023/07/26 10:36:27;;;;;;;2.47;1.30;;;;;;;;;;5114230;28;20161;-81
2023/07/26 10:38:53;;;;;;;1.50;1.40;;;;;;;;;;5114530;28;20040;-81
2023/07/26 10:41:29;;;;;;;1.63;1.52;;;;;;;;;;5080287;28;20405;-81
2023/07/26 10:44:03;;;;;;;1.70;1.17;;;;;;;;;;5114079;28;20079;-82
2023/07/26 10:46:29;;;;;;;1.70;1.60;;;;;;;;;;5114943;28;20043;-82
2023/07/26 10:48:55;;;;;;;2.88;1.40;;;;;;;;;;5114730;28;20497;-81
2023/07/26 10:51:22;;;;;;;2.30;1.85;;;;;;;;;;5114624;28;20104;-82
2023/07/26 10:53:49;;;;;;;1.10;0.90;;;;;;;;;;5114684;28;20078;-82
2023/07/26 10:56:19;;;;;;;2.63;1.33;;;;;;;;;;5096662;28;20046;-81
2023/07/26 10:58:55;;;;;;;1.83;1.35;;;;;;;;;;5113437;28;20047;-81
2023/07/26 11:01:37;;;;;;;1.95;0.90;;;;;;;;;;5114322;28;20477;-82
2023/07/26 11:04:08;;;;;;;1.95;0.90;;;;;;;;;;5113887;28;20486;-81
2023/07/26 11:06:53;;;;;;;1.83;1.15;;;;;;;;;;5115287;28;20093;-82
2023/07/26 11:09:24;;;;;;;1.30;0.80;;;;;;;;;;5096507;28;20055;-81
2023/07/26 11:12:00;;;;;;;2.00;1.30;;;;;;;;;;5096465;28;20055;-81
2023/07/26 11:14:28;;;;;;;1.85;0.90;;;;;;;;;;5096119;28;20050;-82
2023/07/26 11:16:55;;;;;;;1.55;1.00;;;;;;;;;;5096388;28;20057;-81
2023/07/26 11:19:22;;;;;;;1.50;1.13;;;;;;;;;;5113455;28;20039;-82
2023/07/26 11:21:48;;;;;;;1.98;0.60;;;;;;;;;;5113625;28;20052;-81
2023/07/26 11:24:14;;;;;;;2.55;0.70;;;;;;;;;;5114176;28;20110;-81
2023/07/26 11:26:41;;;;;;;1.10;0.40;;;;;;;;;;5096329;28;20039;-81
2023/07/26 11:29:07;;;;;;;1.10;0.50;;;;;;;;;;5113320;28;20129;-81
2023/07/26 11:31:33;;;;;;;2.85;0.85;;;;;;;;;;5113276;28;20427;-81
2023/07/26 11:33:59;;;;;;;2.17;0.80;;;;;;;;;;5112077;28;20081;-81
2023/07/26 11:36:26;;;;;;;1.25;0.98;;;;;;;;;;5095193;28;20136;-82
2023/07/26 11:38:52;;;;;;;4.20;1.40;;;;;;;;;;5113846;28;20059;-85
2023/07/26 11:41:18;;;;;;;3.80;1.88;;;;;;;;;;5113603;28;20101;-79
2023/07/26 11:43:45;;;;;;;3.85;1.67;;;;;;;;;;5096094;28;20168;-80
2023/07/26 11:46:11;;;;;;;2.95;1.67;;;;;;;;;;5111949;28;20047;-80
2023/07/26 11:48:43;;;;;;;1.83;0.95;;;;;;;;;;5113070;28;20076;-82
2023/07/26 11:51:09;;;;;;;2.78;0.60;;;;;;;;;;5112202;28;20534;-81
2023/07/26 11:53:37;;;;;;;1.33;0.30;;;;;;;;;;5112259;28;20417;-82
2023/07/26 11:56:04;;;;;;;0.50;0.20;;;;;;;;;;5113145;28;20043;-84
2023/07/26 11:58:36;;;;;;;0.30;0.20;;;;;;;;;;5113402;28;20047;-84
2023/07/26 12:01:03;;;;;;;1.25;0.10;;;;;;;;;;5114757;28;20055;-83
2023/07/26 12:03:30;;;;;;;0.30;0.20;;;;;;;;;;5112677;28;20055;-84
2023/07/26 12:05:56;;;;;;;0.50;0.20;;;;;;;;;;5096538;28;20098;-87
2023/07/26 12:08:23;;;;;;;1.13;0.30;;;;;;;;;;5096202;28;20401;-86
2023/07/26 12:10:49;;;;;;;0.30;0.20;;;;;;;;;;5079234;28;20043;-86
2023/07/26 12:13:20;;;;;;;0.60;0.40;;;;;;;;;;5095843;28;20043;-85
2023/07/26 12:15:52;;;;;;;0.50;0.30;;;;;;;;;;5095776;28;20100;-84
2023/07/26 12:18:22;;;;;;;5.43;4.22;;;;;;;;;;5112988;28;20040;-84
2023/07/26 12:20:59;;;;;;;0.50;0.30;;;;;;;;;;5096138;28;20146;-85
2023/07/26 12:23:26;;;;;;;6.80;6.32;;;;;;;;;;5112356;28;20059;-85
2023/07/26 12:26:00;;;;;;;3.85;3.65;;;;;;;;;;5095758;28;20039;-84
2023/07/26 12:28:26;;;;;;;0.68;0.40;;;;;;;;;;5056406;28;1124776;-84
2023/07/26 12:30:54;;;;;;;1.25;0.40;;;;;;;;;;5096660;28;20408;-83
2023/07/26 12:33:20;;;;;;;0.98;0.50;;;;;;;;;;5114182;28;20078;-84
2023/07/26 12:35:46;;;;;;;1.05;0.50;;;;;;;;;;5113647;28;20099;-84
2023/07/26 12:38:14;;;;;;;3.22;0.60;;;;;;;;;;5113115;28;20052;-84
2023/07/26 12:40:40;;;;;;;0.82;0.43;;;;;;;;;;5096534;28;20054;-85
2023/07/26 12:43:19;;;;;;;0.90;0.40;;;;;;;;;;5113900;28;20066;-85
2023/07/26 12:45:45;;;;;;;0.65;0.40;;;;;;;;;;5116041;28;20092;-85
2023/07/26 12:48:12;;;;;;;1.17;0.40;;;;;;;;;;5100191;28;20051;-85
2023/07/26 12:50:41;;;;;;;0.93;0.30;;;;;;;;;;5118257;28;20126;-85
2023/07/26 12:53:08;;;;;;;1.00;0.40;;;;;;;;;;5116894;28;20130;-84
2023/07/26 12:55:34;;;;;;;2.67;0.47;;;;;;;;;;5099800;28;20051;-85
2023/07/26 12:58:00;;;;;;;1.23;0.80;;;;;;;;;;5117797;28;20079;-85
2023/07/26 13:00:27;;;;;;;1.45;0.60;;;;;;;;;;5117173;28;20044;-85
2023/07/26 13:02:53;;;;;;;1.42;0.57;;;;;;;;;;5117905;28;20048;-86
2023/07/26 13:05:19;;;;;;;1.20;0.50;;;;;;;;;;5099709;28;20051;-86
2023/07/26 13:07:49;;;;;;;1.60;0.40;;;;;;;;;;5117113;28;20048;-85
2023/07/26 13:10:16;;;;;;;1.88;0.55;;;;;;;;;;5117668;28;20093;-86
2023/07/26 13:12:42;;;;;;;2.97;0.63;;;;;;;;;;5099547;28;20180;-86
2023/07/26 13:15:08;;;;;;;1.40;0.50;;;;;;;;;;5116432;28;20036;-85
2023/07/26 13:17:34;;;;;;;1.00;0.45;;;;;;;;;;5099306;28;20040;-86
2023/07/26 13:20:00;;;;;;;1.25;0.40;;;;;;;;;;5117721;28;20043;-85
2023/07/26 13:22:27;;;;;;;3.45;0.65;;;;;;;;;;5082516;28;20047;-85
2023/07/26 13:24:53;;;;;;;1.00;0.55;;;;;;;;;;5116979;27;20090;-85
2023/07/26 13:27:19;;;;;;;1.65;0.63;;;;;;;;;;5116422;28;20036;-85
2023/07/26 13:29:45;;;;;;;2.20;1.42;;;;;;;;;;5117294;28;20090;-84
2023/07/26 13:32:12;;;;;;;1.20;0.55;;;;;;;;;;5082038;28;20057;-85
2023/07/26 13:34:39;;;;;;;1.55;0.60;;;;;;;;;;5115918;28;20401;-85
2023/07/26 13:37:06;;;;;;;1.80;0.77;;;;;;;;;;5115942;28;20043;-84
2023/07/26 13:39:32;;;;;;;1.52;0.80;;;;;;;;;;5116595;28;20381;-85
2023/07/26 13:41:58;;;;;;;2.25;0.73;;;;;;;;;;5116464;28;20039;-84
2023/07/26 13:44:25;;;;;;;1.65;0.95;;;;;;;;;;5099755;28;20462;-84
2023/07/26 13:46:51;;;;;;;1.45;1.00;;;;;;;;;;5117107;28;20538;-84
2023/07/26 13:49:17;;;;;;;1.30;0.90;;;;;;;;;;5100020;28;20046;-84
2023/07/26 13:51:43;;;;;;;1.42;0.80;;;;;;;;;;5116357;28;20043;-84
2023/07/26 13:54:09;;;;;;;3.33;0.90;;;;;;;;;;5098881;28;20465;-84
2023/07/26 13:56:35;;;;;;;2.42;0.95;;;;;;;;;;5115350;28;20433;-84
2023/07/26 13:59:01;;;;;;;1.83;1.00;;;;;;;;;;5116129;28;20108;-84
2023/07/26 14:01:27;;;;;;;1.52;0.80;;;;;;;;;;5099335;28;20401;-85
2023/07/26 14:03:53;;;;;;;2.03;0.80;;;;;;;;;;5115419;28;20055;-85
2023/07/26 14:06:20;;;;;;;2.67;1.05;;;;;;;;;;5115576;28;20112;-84
2023/07/26 14:08:49;;;;;;;2.03;0.80;;;;;;;;;;5098509;28;20074;-84
2023/07/26 14:11:15;;;;;;;1.75;1.13;;;;;;;;;;5115407;28;20044;-83
2023/07/26 14:13:41;;;;;;;2.17;1.00;;;;;;;;;;5115625;28;20047;-84
2023/07/26 14:16:08;;;;;;;1.83;1.13;;;;;;;;;;5115357;28;20108;-84
2023/07/26 14:18:35;;;;;;;1.23;1.13;;;;;;;;;;5114857;28;20100;-83
2023/07/26 14:21:01;;;;;;;1.20;0.80;;;;;;;;;;5097659;28;20047;-84
2023/07/26 14:23:29;;;;;;;2.10;1.23;;;;;;;;;;5115076;28;20051;-83
2023/07/26 14:25:55;;;;;;;1.80;0.80;;;;;;;;;;5115071;28;20520;-84
2023/07/26 14:28:21;;;;;;;2.17;1.20;;;;;;;;;;5115386;28;20100;-83
2023/07/26 14:30:47;;;;;;;3.67;1.10;;;;;;;;;;5114495;28;20108;-83
2023/07/26 14:33:13;;;;;;;1.75;1.15;;;;;;;;;;5097441;28;20044;-83
2023/07/26 14:35:39;;;;;;;1.23;1.10;;;;;;;;;;5114540;28;20043;-82
2023/07/26 14:38:05;;;;;;;1.85;1.10;;;;;;;;;;5114768;28;20135;-83
2023/07/26 14:40:32;;;;;;;2.15;1.00;;;;;;;;;;5114164;28;20050;-82
2023/07/26 14:42:58;;;;;;;1.38;0.80;;;;;;;;;;5097854;28;20047;-82